sensor_id;sensor_type;location;lat;lon;timestamp;P1;durP1;ratioP1;P2;durP2;ratioP2
37997;SDS011;24079;51.824;4.682;2022-12-07T00:01:44;10.73;;;3.50;;
37997;SDS011;24079;51.824;4.682;2022-12-07T00:04:12;8.35;;;2.72;;
37997;SDS011;24079;51.824;4.682;2022-12-07T00:06:39;11.75;;;3.17;;
37997;SDS011;24079;51.824;4.682;2022-12-07T00:09:09;12.27;;;3.22;;
37997;SDS011;24079;51.824;4.682;2022-12-07T00:11:37;5.63;;;2.20;;
37997;SDS011;24079;51.824;4.682;2022-12-07T00:14:05;12.75;;;2.53;;
37997;SDS011;24079;51.824;4.682;2022-12-07T00:16:33;10.45;;;3.10;;
37997;SDS011;24079;51.824;4.682;2022-12-07T00:18:59;13.40;;;3.53;;
37997;SDS011;24079;51.824;4.682;2022-12-07T00:21:25;9.52;;;2.30;;
37997;SDS011;24079;51.824;4.682;2022-12-07T00:23:54;7.82;;;2.47;;
37997;SDS011;24079;51.824;4.682;2022-12-07T00:26:21;13.35;;;3.35;;
37997;SDS011;24079;51.824;4.682;2022-12-07T00:28:49;8.75;;;2.85;;
37997;SDS011;24079;51.824;4.682;2022-12-07T00:31:20;12.37;;;2.90;;
37997;SDS011;24079;51.824;4.682;2022-12-07T00:33:47;7.75;;;2.70;;
37997;SDS011;24079;51.824;4.682;2022-12-07T00:36:15;11.52;;;3.03;;
37997;SDS011;24079;51.824;4.682;2022-12-07T00:38:42;9.88;;;2.72;;
37997;SDS011;24079;51.824;4.682;2022-12-07T00:41:12;13.35;;;2.40;;
37997;SDS011;24079;51.824;4.682;2022-12-07T00:43:40;9.07;;;2.47;;
37997;SDS011;24079;51.824;4.682;2022-12-07T00:46:06;11.20;;;2.45;;
37997;SDS011;24079;51.824;4.682;2022-12-07T00:48:32;8.05;;;2.00;;
37997;SDS011;24079;51.824;4.682;2022-12-07T00:50:58;9.75;;;2.20;;
37997;SDS011;24079;51.824;4.682;2022-12-07T00:53:25;15.73;;;2.75;;
37997;SDS011;24079;51.824;4.682;2022-12-07T00:55:51;8.52;;;2.05;;
37997;SDS011;24079;51.824;4.682;2022-12-07T00:58:17;14.40;;;2.40;;
37997;SDS011;24079;51.824;4.682;2022-12-07T01:00:43;8.98;;;2.42;;
37997;SDS011;24079;51.824;4.682;2022-12-07T01:03:11;10.77;;;2.42;;
37997;SDS011;24079;51.824;4.682;2022-12-07T01:05:38;9.25;;;2.55;;
37997;SDS011;24079;51.824;4.682;2022-12-07T01:08:05;8.32;;;1.92;;
37997;SDS011;24079;51.824;4.682;2022-12-07T01:10:31;9.80;;;2.22;;
37997;SDS011;24079;51.824;4.682;2022-12-07T01:12:57;6.10;;;2.15;;
37997;SDS011;24079;51.824;4.682;2022-12-07T01:15:24;7.03;;;2.70;;
37997;SDS011;24079;51.824;4.682;2022-12-07T01:17:51;9.48;;;2.63;;
37997;SDS011;24079;51.824;4.682;2022-12-07T01:20:16;5.68;;;1.80;;
37997;SDS011;24079;51.824;4.682;2022-12-07T01:22:42;8.25;;;2.25;;
37997;SDS011;24079;51.824;4.682;2022-12-07T01:25:09;11.75;;;3.05;;
37997;SDS011;24079;51.824;4.682;2022-12-07T01:27:35;10.02;;;2.47;;
37997;SDS011;24079;51.824;4.682;2022-12-07T01:30:02;12.15;;;2.40;;
37997;SDS011;24079;51.824;4.682;2022-12-07T01:32:30;5.40;;;2.10;;
37997;SDS011;24079;51.824;4.682;2022-12-07T01:34:55;10.18;;;2.08;;
37997;SDS011;24079;51.824;4.682;2022-12-07T01:37:21;10.82;;;3.05;;
37997;SDS011;24079;51.824;4.682;2022-12-07T01:39:50;7.03;;;2.25;;
37997;SDS011;24079;51.824;4.682;2022-12-07T01:42:17;9.68;;;2.80;;
37997;SDS011;24079;51.824;4.682;2022-12-07T01:47:43;8.43;;;2.75;;
37997;SDS011;24079;51.824;4.682;2022-12-07T01:50:18;12.23;;;2.92;;
37997;SDS011;24079;51.824;4.682;2022-12-07T01:52:46;8.93;;;2.70;;
37997;SDS011;24079;51.824;4.682;2022-12-07T01:55:15;9.20;;;2.75;;
37997;SDS011;24079;51.824;4.682;2022-12-07T01:57:43;8.02;;;2.40;;
37997;SDS011;24079;51.824;4.682;2022-12-07T02:00:13;7.40;;;2.07;;
37997;SDS011;24079;51.824;4.682;2022-12-07T02:02:41;11.30;;;2.25;;
37997;SDS011;24079;51.824;4.682;2022-12-07T02:05:26;8.85;;;2.05;;
37997;SDS011;24079;51.824;4.682;2022-12-07T02:07:54;9.00;;;2.20;;
37997;SDS011;24079;51.824;4.682;2022-12-07T02:10:23;10.70;;;1.95;;
37997;SDS011;24079;51.824;4.682;2022-12-07T02:12:54;8.23;;;2.63;;
37997;SDS011;24079;51.824;4.682;2022-12-07T02:15:26;8.55;;;1.95;;
37997;SDS011;24079;51.824;4.682;2022-12-07T02:18:21;10.45;;;2.10;;
37997;SDS011;24079;51.824;4.682;2022-12-07T02:21:02;8.35;;;2.33;;
37997;SDS011;24079;51.824;4.682;2022-12-07T02:24:00;13.90;;;3.22;;
37997;SDS011;24079;51.824;4.682;2022-12-07T02:26:44;15.30;;;2.33;;
37997;SDS011;24079;51.824;4.682;2022-12-07T02:29:22;8.85;;;2.22;;
37997;SDS011;24079;51.824;4.682;2022-12-07T02:32:02;5.25;;;1.90;;
37997;SDS011;24079;51.824;4.682;2022-12-07T02:34:34;9.77;;;2.20;;
37997;SDS011;24079;51.824;4.682;2022-12-07T02:37:03;13.32;;;2.85;;
37997;SDS011;24079;51.824;4.682;2022-12-07T02:39:50;11.48;;;2.70;;
37997;SDS011;24079;51.824;4.682;2022-12-07T02:42:52;7.63;;;1.92;;
37997;SDS011;24079;51.824;4.682;2022-12-07T02:45:25;5.10;;;2.10;;
37997;SDS011;24079;51.824;4.682;2022-12-07T02:47:55;11.27;;;2.20;;
37997;SDS011;24079;51.824;4.682;2022-12-07T02:50:23;7.40;;;2.45;;
37997;SDS011;24079;51.824;4.682;2022-12-07T02:52:49;9.32;;;3.22;;
37997;SDS011;24079;51.824;4.682;2022-12-07T02:55:15;14.23;;;2.95;;
37997;SDS011;24079;51.824;4.682;2022-12-07T03:00:58;8.25;;;2.20;;
37997;SDS011;24079;51.824;4.682;2022-12-07T03:03:34;9.55;;;2.35;;
37997;SDS011;24079;51.824;4.682;2022-12-07T03:06:10;11.02;;;2.22;;
37997;SDS011;24079;51.824;4.682;2022-12-07T03:11:22;8.75;;;2.22;;
37997;SDS011;24079;51.824;4.682;2022-12-07T03:16:22;8.65;;;2.58;;
37997;SDS011;24079;51.824;4.682;2022-12-07T03:21:23;12.23;;;2.90;;
37997;SDS011;24079;51.824;4.682;2022-12-07T03:23:53;13.35;;;4.57;;
37997;SDS011;24079;51.824;4.682;2022-12-07T03:26:21;8.05;;;3.65;;
37997;SDS011;24079;51.824;4.682;2022-12-07T03:28:54;10.00;;;3.58;;
37997;SDS011;24079;51.824;4.682;2022-12-07T03:31:28;11.38;;;3.10;;
37997;SDS011;24079;51.824;4.682;2022-12-07T03:33:59;10.35;;;2.95;;
37997;SDS011;24079;51.824;4.682;2022-12-07T03:36:40;10.10;;;3.17;;
37997;SDS011;24079;51.824;4.682;2022-12-07T03:39:24;13.65;;;2.63;;
37997;SDS011;24079;51.824;4.682;2022-12-07T03:42:05;6.35;;;1.88;;
37997;SDS011;24079;51.824;4.682;2022-12-07T03:44:33;8.38;;;2.25;;
37997;SDS011;24079;51.824;4.682;2022-12-07T03:52:17;9.38;;;2.30;;
37997;SDS011;24079;51.824;4.682;2022-12-07T03:57:36;10.23;;;2.20;;
37997;SDS011;24079;51.824;4.682;2022-12-07T04:00:05;9.20;;;2.63;;
37997;SDS011;24079;51.824;4.682;2022-12-07T04:02:31;7.45;;;2.42;;
37997;SDS011;24079;51.824;4.682;2022-12-07T04:04:58;9.60;;;2.38;;
37997;SDS011;24079;51.824;4.682;2022-12-07T04:07:24;10.10;;;2.13;;
37997;SDS011;24079;51.824;4.682;2022-12-07T04:09:49;6.38;;;2.15;;
37997;SDS011;24079;51.824;4.682;2022-12-07T04:12:15;6.82;;;1.70;;
37997;SDS011;24079;51.824;4.682;2022-12-07T04:14:41;6.45;;;1.98;;
37997;SDS011;24079;51.824;4.682;2022-12-07T04:17:06;5.82;;;1.85;;
37997;SDS011;24079;51.824;4.682;2022-12-07T04:19:33;9.88;;;2.22;;
37997;SDS011;24079;51.824;4.682;2022-12-07T04:22:00;7.75;;;1.75;;
37997;SDS011;24079;51.824;4.682;2022-12-07T04:24:27;9.20;;;2.28;;
37997;SDS011;24079;51.824;4.682;2022-12-07T04:26:53;8.00;;;1.92;;
37997;SDS011;24079;51.824;4.682;2022-12-07T04:29:19;6.25;;;2.30;;
37997;SDS011;24079;51.824;4.682;2022-12-07T04:31:45;12.45;;;2.42;;
37997;SDS011;24079;51.824;4.682;2022-12-07T04:34:11;8.88;;;2.10;;
37997;SDS011;24079;51.824;4.682;2022-12-07T04:36:37;8.35;;;2.00;;
37997;SDS011;24079;51.824;4.682;2022-12-07T04:39:05;6.90;;;1.98;;
37997;SDS011;24079;51.824;4.682;2022-12-07T04:41:32;13.48;;;2.10;;
37997;SDS011;24079;51.824;4.682;2022-12-07T04:43:59;5.60;;;1.83;;
37997;SDS011;24079;51.824;4.682;2022-12-07T04:46:26;12.95;;;1.98;;
37997;SDS011;24079;51.824;4.682;2022-12-07T04:48:53;6.10;;;1.70;;
37997;SDS011;24079;51.824;4.682;2022-12-07T04:51:23;8.88;;;1.77;;
37997;SDS011;24079;51.824;4.682;2022-12-07T04:53:52;8.30;;;1.67;;
37997;SDS011;24079;51.824;4.682;2022-12-07T04:56:19;9.35;;;2.00;;
37997;SDS011;24079;51.824;4.682;2022-12-07T04:58:45;9.57;;;1.75;;
37997;SDS011;24079;51.824;4.682;2022-12-07T05:01:12;7.63;;;2.20;;
37997;SDS011;24079;51.824;4.682;2022-12-07T05:03:39;13.13;;;3.10;;
37997;SDS011;24079;51.824;4.682;2022-12-07T05:06:05;12.88;;;3.38;;
37997;SDS011;24079;51.824;4.682;2022-12-07T05:08:32;16.35;;;3.22;;
37997;SDS011;24079;51.824;4.682;2022-12-07T05:10:58;13.65;;;3.53;;
37997;SDS011;24079;51.824;4.682;2022-12-07T05:13:24;13.02;;;3.63;;
37997;SDS011;24079;51.824;4.682;2022-12-07T05:15:50;14.32;;;3.70;;
37997;SDS011;24079;51.824;4.682;2022-12-07T05:18:15;12.60;;;4.20;;
37997;SDS011;24079;51.824;4.682;2022-12-07T05:20:42;14.88;;;3.50;;
37997;SDS011;24079;51.824;4.682;2022-12-07T05:23:08;10.15;;;2.38;;
37997;SDS011;24079;51.824;4.682;2022-12-07T05:25:34;17.23;;;2.20;;
37997;SDS011;24079;51.824;4.682;2022-12-07T05:28:01;11.65;;;2.35;;
37997;SDS011;24079;51.824;4.682;2022-12-07T05:30:27;8.02;;;2.20;;
37997;SDS011;24079;51.824;4.682;2022-12-07T05:32:52;12.10;;;2.83;;
37997;SDS011;24079;51.824;4.682;2022-12-07T05:35:18;9.65;;;2.17;;
37997;SDS011;24079;51.824;4.682;2022-12-07T05:37:44;10.07;;;1.90;;
37997;SDS011;24079;51.824;4.682;2022-12-07T05:40:10;19.92;;;4.40;;
37997;SDS011;24079;51.824;4.682;2022-12-07T05:42:37;21.42;;;6.35;;
37997;SDS011;24079;51.824;4.682;2022-12-07T05:45:03;14.95;;;6.03;;
37997;SDS011;24079;51.824;4.682;2022-12-07T05:47:29;16.05;;;5.43;;
37997;SDS011;24079;51.824;4.682;2022-12-07T05:49:55;10.32;;;3.83;;
37997;SDS011;24079;51.824;4.682;2022-12-07T05:52:21;10.35;;;2.88;;
37997;SDS011;24079;51.824;4.682;2022-12-07T05:54:47;9.68;;;2.72;;
37997;SDS011;24079;51.824;4.682;2022-12-07T05:57:12;9.60;;;2.92;;
37997;SDS011;24079;51.824;4.682;2022-12-07T05:59:38;14.52;;;3.28;;
37997;SDS011;24079;51.824;4.682;2022-12-07T06:02:08;7.32;;;2.30;;
37997;SDS011;24079;51.824;4.682;2022-12-07T06:04:40;6.95;;;1.80;;
37997;SDS011;24079;51.824;4.682;2022-12-07T06:07:08;7.90;;;2.28;;
37997;SDS011;24079;51.824;4.682;2022-12-07T06:09:34;9.00;;;2.10;;
37997;SDS011;24079;51.824;4.682;2022-12-07T06:12:00;14.55;;;2.47;;
37997;SDS011;24079;51.824;4.682;2022-12-07T06:14:45;10.15;;;2.22;;
37997;SDS011;24079;51.824;4.682;2022-12-07T06:17:11;10.15;;;2.40;;
37997;SDS011;24079;51.824;4.682;2022-12-07T06:19:37;8.18;;;2.50;;
37997;SDS011;24079;51.824;4.682;2022-12-07T06:22:03;9.90;;;2.53;;
37997;SDS011;24079;51.824;4.682;2022-12-07T06:24:30;9.23;;;2.70;;
37997;SDS011;24079;51.824;4.682;2022-12-07T06:26:56;7.90;;;2.60;;
37997;SDS011;24079;51.824;4.682;2022-12-07T06:29:22;12.50;;;2.80;;
37997;SDS011;24079;51.824;4.682;2022-12-07T06:31:48;13.57;;;3.25;;
37997;SDS011;24079;51.824;4.682;2022-12-07T06:34:15;12.45;;;3.10;;
37997;SDS011;24079;51.824;4.682;2022-12-07T06:36:43;9.13;;;3.25;;
37997;SDS011;24079;51.824;4.682;2022-12-07T06:39:09;10.63;;;3.33;;
37997;SDS011;24079;51.824;4.682;2022-12-07T06:41:35;13.75;;;3.60;;
37997;SDS011;24079;51.824;4.682;2022-12-07T06:44:02;11.80;;;3.53;;
37997;SDS011;24079;51.824;4.682;2022-12-07T06:46:28;8.32;;;3.55;;
37997;SDS011;24079;51.824;4.682;2022-12-07T06:48:53;9.00;;;3.28;;
37997;SDS011;24079;51.824;4.682;2022-12-07T06:51:19;9.27;;;3.38;;
37997;SDS011;24079;51.824;4.682;2022-12-07T06:53:44;16.17;;;4.25;;
37997;SDS011;24079;51.824;4.682;2022-12-07T06:56:10;11.93;;;3.90;;
37997;SDS011;24079;51.824;4.682;2022-12-07T06:58:36;13.30;;;3.95;;
37997;SDS011;24079;51.824;4.682;2022-12-07T07:01:01;18.38;;;4.05;;
37997;SDS011;24079;51.824;4.682;2022-12-07T07:03:27;13.20;;;3.72;;
37997;SDS011;24079;51.824;4.682;2022-12-07T07:05:54;10.10;;;3.42;;
37997;SDS011;24079;51.824;4.682;2022-12-07T07:08:20;10.95;;;3.08;;
37997;SDS011;24079;51.824;4.682;2022-12-07T07:10:45;7.95;;;3.25;;
37997;SDS011;24079;51.824;4.682;2022-12-07T07:13:11;11.88;;;3.47;;
37997;SDS011;24079;51.824;4.682;2022-12-07T07:15:37;13.65;;;3.67;;
37997;SDS011;24079;51.824;4.682;2022-12-07T07:18:03;10.52;;;3.72;;
37997;SDS011;24079;51.824;4.682;2022-12-07T07:20:29;17.17;;;4.30;;
37997;SDS011;24079;51.824;4.682;2022-12-07T07:22:55;11.82;;;3.63;;
37997;SDS011;24079;51.824;4.682;2022-12-07T07:25:20;11.25;;;3.33;;
37997;SDS011;24079;51.824;4.682;2022-12-07T07:27:46;9.57;;;3.40;;
37997;SDS011;24079;51.824;4.682;2022-12-07T07:30:12;13.38;;;3.67;;
37997;SDS011;24079;51.824;4.682;2022-12-07T07:32:38;12.38;;;3.63;;
37997;SDS011;24079;51.824;4.682;2022-12-07T07:35:03;11.23;;;4.13;;
37997;SDS011;24079;51.824;4.682;2022-12-07T07:37:29;11.85;;;4.18;;
37997;SDS011;24079;51.824;4.682;2022-12-07T07:39:55;15.70;;;4.78;;
37997;SDS011;24079;51.824;4.682;2022-12-07T07:42:20;14.27;;;4.70;;
37997;SDS011;24079;51.824;4.682;2022-12-07T07:44:46;11.02;;;3.97;;
37997;SDS011;24079;51.824;4.682;2022-12-07T07:47:12;16.20;;;4.55;;
37997;SDS011;24079;51.824;4.682;2022-12-07T07:49:37;12.35;;;4.57;;
37997;SDS011;24079;51.824;4.682;2022-12-07T07:52:03;15.68;;;4.97;;
37997;SDS011;24079;51.824;4.682;2022-12-07T07:54:30;13.63;;;4.85;;
37997;SDS011;24079;51.824;4.682;2022-12-07T07:56:55;16.13;;;4.32;;
37997;SDS011;24079;51.824;4.682;2022-12-07T07:59:21;13.45;;;4.65;;
37997;SDS011;24079;51.824;4.682;2022-12-07T08:01:47;13.88;;;4.78;;
37997;SDS011;24079;51.824;4.682;2022-12-07T08:04:13;12.63;;;4.10;;
37997;SDS011;24079;51.824;4.682;2022-12-07T08:06:38;12.32;;;4.47;;
37997;SDS011;24079;51.824;4.682;2022-12-07T08:09:04;16.85;;;4.65;;
37997;SDS011;24079;51.824;4.682;2022-12-07T08:11:31;13.15;;;4.00;;
37997;SDS011;24079;51.824;4.682;2022-12-07T08:13:57;13.55;;;4.18;;
37997;SDS011;24079;51.824;4.682;2022-12-07T08:16:22;12.40;;;4.32;;
37997;SDS011;24079;51.824;4.682;2022-12-07T08:18:48;17.65;;;4.93;;
37997;SDS011;24079;51.824;4.682;2022-12-07T08:21:14;10.63;;;4.10;;
37997;SDS011;24079;51.824;4.682;2022-12-07T08:23:40;12.77;;;4.35;;
37997;SDS011;24079;51.824;4.682;2022-12-07T08:26:07;15.35;;;3.80;;
37997;SDS011;24079;51.824;4.682;2022-12-07T08:28:37;18.23;;;4.15;;
37997;SDS011;24079;51.824;4.682;2022-12-07T08:31:04;12.27;;;4.55;;
37997;SDS011;24079;51.824;4.682;2022-12-07T08:33:36;12.68;;;4.43;;
37997;SDS011;24079;51.824;4.682;2022-12-07T08:36:03;15.80;;;5.13;;
37997;SDS011;24079;51.824;4.682;2022-12-07T08:38:30;17.10;;;5.25;;
37997;SDS011;24079;51.824;4.682;2022-12-07T08:40:57;17.70;;;5.60;;
37997;SDS011;24079;51.824;4.682;2022-12-07T08:43:23;21.70;;;6.18;;
37997;SDS011;24079;51.824;4.682;2022-12-07T08:45:52;20.25;;;6.63;;
37997;SDS011;24079;51.824;4.682;2022-12-07T08:48:43;17.23;;;5.45;;
37997;SDS011;24079;51.824;4.682;2022-12-07T08:51:21;20.38;;;6.00;;
37997;SDS011;24079;51.824;4.682;2022-12-07T08:53:48;20.35;;;5.90;;
37997;SDS011;24079;51.824;4.682;2022-12-07T08:56:16;21.40;;;6.53;;
37997;SDS011;24079;51.824;4.682;2022-12-07T08:58:43;14.60;;;5.40;;
37997;SDS011;24079;51.824;4.682;2022-12-07T09:01:09;20.33;;;5.88;;
37997;SDS011;24079;51.824;4.682;2022-12-07T09:03:35;21.40;;;5.85;;
37997;SDS011;24079;51.824;4.682;2022-12-07T09:06:00;13.05;;;4.95;;
37997;SDS011;24079;51.824;4.682;2022-12-07T09:08:28;17.08;;;5.38;;
37997;SDS011;24079;51.824;4.682;2022-12-07T09:10:57;18.67;;;4.40;;
37997;SDS011;24079;51.824;4.682;2022-12-07T09:13:24;15.52;;;4.43;;
37997;SDS011;24079;51.824;4.682;2022-12-07T09:15:49;13.82;;;3.90;;
37997;SDS011;24079;51.824;4.682;2022-12-07T09:18:15;20.60;;;4.88;;
37997;SDS011;24079;51.824;4.682;2022-12-07T09:20:40;17.83;;;4.63;;
37997;SDS011;24079;51.824;4.682;2022-12-07T09:23:06;14.45;;;4.78;;
37997;SDS011;24079;51.824;4.682;2022-12-07T09:25:32;15.48;;;4.00;;
37997;SDS011;24079;51.824;4.682;2022-12-07T09:27:58;20.42;;;5.15;;
37997;SDS011;24079;51.824;4.682;2022-12-07T09:30:25;14.23;;;4.82;;
37997;SDS011;24079;51.824;4.682;2022-12-07T09:32:55;11.75;;;4.85;;
37997;SDS011;24079;51.824;4.682;2022-12-07T09:35:22;15.23;;;6.30;;
37997;SDS011;24079;51.824;4.682;2022-12-07T09:37:48;14.05;;;4.80;;
37997;SDS011;24079;51.824;4.682;2022-12-07T09:40:14;13.43;;;4.03;;
37997;SDS011;24079;51.824;4.682;2022-12-07T09:42:43;11.50;;;3.90;;
37997;SDS011;24079;51.824;4.682;2022-12-07T09:45:14;16.92;;;4.15;;
37997;SDS011;24079;51.824;4.682;2022-12-07T09:47:46;12.32;;;3.75;;
37997;SDS011;24079;51.824;4.682;2022-12-07T09:50:13;10.73;;;3.25;;
37997;SDS011;24079;51.824;4.682;2022-12-07T09:52:41;19.83;;;4.88;;
37997;SDS011;24079;51.824;4.682;2022-12-07T09:55:10;14.68;;;3.55;;
37997;SDS011;24079;51.824;4.682;2022-12-07T09:57:39;25.65;;;4.65;;
37997;SDS011;24079;51.824;4.682;2022-12-07T10:00:15;18.63;;;5.18;;
37997;SDS011;24079;51.824;4.682;2022-12-07T10:02:44;15.48;;;4.38;;
37997;SDS011;24079;51.824;4.682;2022-12-07T10:05:17;17.08;;;3.60;;
37997;SDS011;24079;51.824;4.682;2022-12-07T10:08:04;20.02;;;3.45;;
37997;SDS011;24079;51.824;4.682;2022-12-07T10:10:31;14.73;;;2.88;;
37997;SDS011;24079;51.824;4.682;2022-12-07T10:13:00;19.73;;;3.72;;
37997;SDS011;24079;51.824;4.682;2022-12-07T10:21:20;12.27;;;3.53;;
37997;SDS011;24079;51.824;4.682;2022-12-07T10:24:00;7.85;;;2.90;;
37997;SDS011;24079;51.824;4.682;2022-12-07T10:26:30;8.88;;;3.78;;
37997;SDS011;24079;51.824;4.682;2022-12-07T10:32:24;15.50;;;5.47;;
37997;SDS011;24079;51.824;4.682;2022-12-07T10:34:39;19.13;;;6.53;;
37997;SDS011;24079;51.824;4.682;2022-12-07T10:39:41;24.98;;;8.68;;
37997;SDS011;24079;51.824;4.682;2022-12-07T10:42:29;27.15;;;9.18;;
37997;SDS011;24079;51.824;4.682;2022-12-07T10:45:16;14.40;;;6.53;;
37997;SDS011;24079;51.824;4.682;2022-12-07T10:47:47;22.15;;;5.82;;
37997;SDS011;24079;51.824;4.682;2022-12-07T11:01:48;12.88;;;3.85;;
37997;SDS011;24079;51.824;4.682;2022-12-07T11:04:31;19.10;;;4.57;;
37997;SDS011;24079;51.824;4.682;2022-12-07T11:07:25;12.82;;;4.03;;
37997;SDS011;24079;51.824;4.682;2022-12-07T11:10:10;12.98;;;3.55;;
37997;SDS011;24079;51.824;4.682;2022-12-07T11:12:56;12.25;;;3.55;;
37997;SDS011;24079;51.824;4.682;2022-12-07T11:21:33;10.30;;;3.70;;
37997;SDS011;24079;51.824;4.682;2022-12-07T11:24:12;8.27;;;2.90;;
37997;SDS011;24079;51.824;4.682;2022-12-07T11:37:32;10.60;;;3.38;;
37997;SDS011;24079;51.824;4.682;2022-12-07T11:40:20;10.40;;;3.25;;
37997;SDS011;24079;51.824;4.682;2022-12-07T11:42:58;10.77;;;3.03;;
37997;SDS011;24079;51.824;4.682;2022-12-07T11:45:31;13.48;;;3.40;;
37997;SDS011;24079;51.824;4.682;2022-12-07T11:48:00;10.07;;;2.70;;
37997;SDS011;24079;51.824;4.682;2022-12-07T11:55:49;11.60;;;4.00;;
37997;SDS011;24079;51.824;4.682;2022-12-07T12:03:49;11.38;;;2.60;;
37997;SDS011;24079;51.824;4.682;2022-12-07T12:06:34;9.35;;;2.35;;
37997;SDS011;24079;51.824;4.682;2022-12-07T12:20:38;6.10;;;2.83;;
37997;SDS011;24079;51.824;4.682;2022-12-07T12:25:47;12.68;;;3.08;;
37997;SDS011;24079;51.824;4.682;2022-12-07T12:33:47;2.17;;;0.88;;
37997;SDS011;24079;51.824;4.682;2022-12-07T12:46:47;3.08;;;1.05;;
37997;SDS011;24079;51.824;4.682;2022-12-07T12:51:46;5.43;;;1.00;;
37997;SDS011;24079;51.824;4.682;2022-12-07T12:56:43;3.90;;;1.17;;
37997;SDS011;24079;51.824;4.682;2022-12-07T13:20:56;8.35;;;4.28;;
37997;SDS011;24079;51.824;4.682;2022-12-07T13:23:27;12.85;;;2.60;;
37997;SDS011;24079;51.824;4.682;2022-12-07T13:28:48;5.30;;;1.27;;
37997;SDS011;24079;51.824;4.682;2022-12-07T13:34:27;3.88;;;1.00;;
37997;SDS011;24079;51.824;4.682;2022-12-07T13:36:53;5.18;;;0.93;;
37997;SDS011;24079;51.824;4.682;2022-12-07T13:39:20;6.65;;;1.60;;
37997;SDS011;24079;51.824;4.682;2022-12-07T13:41:55;6.88;;;1.23;;
37997;SDS011;24079;51.824;4.682;2022-12-07T13:44:22;8.65;;;1.65;;
37997;SDS011;24079;51.824;4.682;2022-12-07T13:49:28;7.90;;;1.80;;
37997;SDS011;24079;51.824;4.682;2022-12-07T13:54:49;5.30;;;1.40;;
37997;SDS011;24079;51.824;4.682;2022-12-07T13:57:20;4.45;;;1.30;;
37997;SDS011;24079;51.824;4.682;2022-12-07T13:59:46;6.57;;;1.58;;
37997;SDS011;24079;51.824;4.682;2022-12-07T14:02:24;11.30;;;3.63;;
37997;SDS011;24079;51.824;4.682;2022-12-07T14:05:05;9.85;;;3.03;;
37997;SDS011;24079;51.824;4.682;2022-12-07T14:07:48;6.30;;;1.88;;
37997;SDS011;24079;51.824;4.682;2022-12-07T14:10:29;6.95;;;1.60;;
37997;SDS011;24079;51.824;4.682;2022-12-07T14:12:58;6.55;;;1.52;;
37997;SDS011;24079;51.824;4.682;2022-12-07T14:15:27;8.90;;;1.60;;
37997;SDS011;24079;51.824;4.682;2022-12-07T14:17:56;10.57;;;1.80;;
37997;SDS011;24079;51.824;4.682;2022-12-07T14:20:29;10.00;;;1.95;;
37997;SDS011;24079;51.824;4.682;2022-12-07T14:22:58;8.82;;;1.38;;
37997;SDS011;24079;51.824;4.682;2022-12-07T14:25:27;8.15;;;1.98;;
37997;SDS011;24079;51.824;4.682;2022-12-07T14:27:57;8.38;;;1.75;;
37997;SDS011;24079;51.824;4.682;2022-12-07T14:30:25;9.23;;;2.33;;
37997;SDS011;24079;51.824;4.682;2022-12-07T14:32:59;11.70;;;2.67;;
37997;SDS011;24079;51.824;4.682;2022-12-07T14:35:26;7.03;;;2.60;;
37997;SDS011;24079;51.824;4.682;2022-12-07T14:37:52;12.80;;;3.08;;
37997;SDS011;24079;51.824;4.682;2022-12-07T14:40:20;9.20;;;2.50;;
37997;SDS011;24079;51.824;4.682;2022-12-07T14:45:44;10.00;;;2.75;;
37997;SDS011;24079;51.824;4.682;2022-12-07T14:48:13;8.55;;;2.40;;
37997;SDS011;24079;51.824;4.682;2022-12-07T14:50:42;9.55;;;2.80;;
37997;SDS011;24079;51.824;4.682;2022-12-07T14:53:14;10.10;;;3.00;;
37997;SDS011;24079;51.824;4.682;2022-12-07T14:55:42;14.45;;;3.25;;
37997;SDS011;24079;51.824;4.682;2022-12-07T14:58:15;13.63;;;4.00;;
37997;SDS011;24079;51.824;4.682;2022-12-07T15:00:41;9.82;;;3.80;;
37997;SDS011;24079;51.824;4.682;2022-12-07T15:03:08;9.95;;;3.00;;
37997;SDS011;24079;51.824;4.682;2022-12-07T15:05:33;11.25;;;2.95;;
37997;SDS011;24079;51.824;4.682;2022-12-07T15:08:01;12.00;;;2.65;;
37997;SDS011;24079;51.824;4.682;2022-12-07T15:10:28;10.93;;;2.53;;
37997;SDS011;24079;51.824;4.682;2022-12-07T15:12:57;9.70;;;2.20;;
37997;SDS011;24079;51.824;4.682;2022-12-07T15:15:41;7.10;;;2.50;;
37997;SDS011;24079;51.824;4.682;2022-12-07T15:18:07;9.38;;;2.65;;
37997;SDS011;24079;51.824;4.682;2022-12-07T15:20:33;9.90;;;2.63;;
37997;SDS011;24079;51.824;4.682;2022-12-07T15:22:58;8.65;;;1.75;;
37997;SDS011;24079;51.824;4.682;2022-12-07T15:25:24;12.43;;;2.65;;
37997;SDS011;24079;51.824;4.682;2022-12-07T15:27:49;8.00;;;3.53;;
37997;SDS011;24079;51.824;4.682;2022-12-07T15:30:15;9.95;;;3.00;;
37997;SDS011;24079;51.824;4.682;2022-12-07T15:32:41;5.25;;;2.42;;
37997;SDS011;24079;51.824;4.682;2022-12-07T15:35:06;10.80;;;2.67;;
37997;SDS011;24079;51.824;4.682;2022-12-07T15:37:32;8.52;;;3.13;;
37997;SDS011;24079;51.824;4.682;2022-12-07T15:39:58;10.07;;;3.35;;
37997;SDS011;24079;51.824;4.682;2022-12-07T15:42:23;9.80;;;3.67;;
37997;SDS011;24079;51.824;4.682;2022-12-07T15:44:49;7.28;;;2.63;;
37997;SDS011;24079;51.824;4.682;2022-12-07T15:47:30;7.10;;;2.17;;
37997;SDS011;24079;51.824;4.682;2022-12-07T15:49:57;5.40;;;1.90;;
37997;SDS011;24079;51.824;4.682;2022-12-07T15:52:23;7.75;;;1.85;;
37997;SDS011;24079;51.824;4.682;2022-12-07T15:54:48;9.35;;;2.58;;
37997;SDS011;24079;51.824;4.682;2022-12-07T15:57:14;10.30;;;3.30;;
37997;SDS011;24079;51.824;4.682;2022-12-07T15:59:39;11.15;;;2.70;;
37997;SDS011;24079;51.824;4.682;2022-12-07T16:02:05;8.93;;;2.47;;
37997;SDS011;24079;51.824;4.682;2022-12-07T16:04:30;9.32;;;2.20;;
37997;SDS011;24079;51.824;4.682;2022-12-07T16:06:56;6.43;;;1.95;;
37997;SDS011;24079;51.824;4.682;2022-12-07T16:09:22;8.98;;;2.28;;
37997;SDS011;24079;51.824;4.682;2022-12-07T16:11:48;6.45;;;2.42;;
37997;SDS011;24079;51.824;4.682;2022-12-07T16:14:15;10.15;;;3.00;;
37997;SDS011;24079;51.824;4.682;2022-12-07T16:16:41;6.07;;;2.33;;
37997;SDS011;24079;51.824;4.682;2022-12-07T16:19:06;6.90;;;2.30;;
37997;SDS011;24079;51.824;4.682;2022-12-07T16:21:33;10.85;;;2.67;;
37997;SDS011;24079;51.824;4.682;2022-12-07T16:24:00;7.10;;;2.70;;
37997;SDS011;24079;51.824;4.682;2022-12-07T16:26:26;8.45;;;2.78;;
37997;SDS011;24079;51.824;4.682;2022-12-07T16:28:52;10.55;;;3.10;;
37997;SDS011;24079;51.824;4.682;2022-12-07T16:31:20;13.75;;;2.85;;
37997;SDS011;24079;51.824;4.682;2022-12-07T16:33:48;7.70;;;2.42;;
37997;SDS011;24079;51.824;4.682;2022-12-07T16:36:14;10.75;;;3.20;;
37997;SDS011;24079;51.824;4.682;2022-12-07T16:38:41;19.90;;;6.40;;
37997;SDS011;24079;51.824;4.682;2022-12-07T16:41:08;28.17;;;9.52;;
37997;SDS011;24079;51.824;4.682;2022-12-07T16:43:34;15.95;;;6.03;;
37997;SDS011;24079;51.824;4.682;2022-12-07T16:46:00;19.17;;;6.07;;
37997;SDS011;24079;51.824;4.682;2022-12-07T16:48:26;17.90;;;7.68;;
37997;SDS011;24079;51.824;4.682;2022-12-07T16:50:52;18.02;;;8.10;;
37997;SDS011;24079;51.824;4.682;2022-12-07T16:53:19;13.10;;;5.22;;
37997;SDS011;24079;51.824;4.682;2022-12-07T16:55:45;12.95;;;4.38;;
37997;SDS011;24079;51.824;4.682;2022-12-07T16:58:11;13.32;;;3.70;;
37997;SDS011;24079;51.824;4.682;2022-12-07T17:00:38;10.73;;;3.75;;
37997;SDS011;24079;51.824;4.682;2022-12-07T17:03:05;10.77;;;4.32;;
37997;SDS011;24079;51.824;4.682;2022-12-07T17:05:31;12.13;;;4.47;;
37997;SDS011;24079;51.824;4.682;2022-12-07T17:07:57;16.85;;;7.57;;
37997;SDS011;24079;51.824;4.682;2022-12-07T17:10:24;11.38;;;3.65;;
37997;SDS011;24079;51.824;4.682;2022-12-07T17:12:50;8.18;;;3.88;;
37997;SDS011;24079;51.824;4.682;2022-12-07T17:15:16;13.50;;;4.25;;